Time;durP1;ratioP1;P1;durP2;ratioP2;P2;SDS_P1;SDS_P2;PMS_P1;PMS_P2;Temp;Humidity;BMP_temperature;BMP_pressure;BME280_temperature;BME280_humidity;BME280_pressure;Samples;Min_cycle;Max_cycle;Signal;HPM_P1;HPM_P2
2024/03/19 00:02:15;;;;;;;23.80;18.10;;;;;;;10.37;82.05;96832.94;4972951;28;20057;-76
2024/03/19 00:04:41;;;;;;;20.92;15.95;;;;;;;10.30;81.87;96833.63;4972803;28;20077;-76
2024/03/19 00:07:08;;;;;;;20.85;15.70;;;;;;;10.25;81.65;96827.25;4972719;28;20050;-76
2024/03/19 00:09:35;;;;;;;21.50;14.13;;;;;;;10.21;81.72;96833.81;4972901;28;20519;-76
2024/03/19 00:12:03;;;;;;;21.00;13.82;;;;;;;10.19;81.97;96839.22;4972779;28;20047;-75
2024/03/19 00:14:29;;;;;;;20.33;14.60;;;;;;;10.19;81.82;96841.00;4974218;28;20055;-77
2024/03/19 00:16:56;;;;;;;19.67;14.75;;;;;;;10.17;81.51;96835.16;4973518;28;20109;-77
2024/03/19 00:19:24;;;;;;;22.40;13.60;;;;;;;10.13;81.45;96837.28;4973191;28;20066;-76
2024/03/19 00:21:50;;;;;;;18.30;14.07;;;;;;;10.11;81.83;96834.06;4972179;28;20054;-76
2024/03/19 00:24:19;;;;;;;18.10;12.98;;;;;;;10.13;82.66;96841.72;4972465;28;20054;-76
2024/03/19 00:26:45;;;;;;;16.92;12.10;;;;;;;10.16;83.13;96836.13;4972498;28;20454;-76
2024/03/19 00:29:13;;;;;;;17.55;13.02;;;;;;;10.20;83.10;96832.19;4972659;28;20046;-76
2024/03/19 00:31:40;;;;;;;21.85;12.30;;;;;;;10.26;83.62;96841.94;4972580;28;20055;-76
2024/03/19 00:34:08;;;;;;;15.32;12.18;;;;;;;10.33;84.21;96844.69;4972195;28;20506;-76
2024/03/19 00:36:35;;;;;;;18.05;12.45;;;;;;;10.40;84.88;96848.22;4972227;28;20515;-76
2024/03/19 00:39:01;;;;;;;15.95;11.75;;;;;;;10.47;85.10;96843.91;4972625;28;20062;-76
2024/03/19 00:41:28;;;;;;;16.00;12.48;;;;;;;10.51;84.93;96845.19;4972110;28;20055;-76
2024/03/19 00:43:55;;;;;;;14.32;12.13;;;;;;;10.55;85.40;96845.66;4972487;28;20531;-76
2024/03/19 00:46:23;;;;;;;19.63;14.05;;;;;;;10.54;84.33;96841.41;4972101;28;20061;-76
2024/03/19 00:48:50;;;;;;;14.75;12.30;;;;;;;10.53;84.42;96838.00;4971970;28;20065;-76
2024/03/19 00:51:16;;;;;;;14.52;12.23;;;;;;;10.49;83.14;96839.34;4969955;28;20054;-76
2024/03/19 00:53:43;;;;;;;13.95;11.70;;;;;;;10.40;81.82;96830.78;4970287;28;20058;-76
2024/03/19 00:56:10;;;;;;;15.13;11.63;;;;;;;10.38;83.20;96839.75;4970479;28;20066;-76
2024/03/19 00:58:36;;;;;;;14.05;12.15;;;;;;;10.41;84.92;96834.22;4971857;28;20434;-76
2024/03/19 01:01:03;;;;;;;15.23;11.95;;;;;;;10.47;85.35;96844.75;4972005;28;20420;-76
2024/03/19 01:03:33;;;;;;;14.18;11.73;;;;;;;10.52;85.54;96831.19;4972685;28;20055;-77
2024/03/19 01:06:00;;;;;;;13.68;10.85;;;;;;;10.53;85.00;96835.41;4970791;28;20339;-77
2024/03/19 01:08:27;;;;;;;12.68;10.55;;;;;;;10.55;85.50;96836.03;4970158;28;20066;-76
2024/03/19 01:10:54;;;;;;;13.18;10.02;;;;;;;10.59;85.76;96833.91;4970385;28;20462;-76
2024/03/19 01:13:20;;;;;;;13.35;10.23;;;;;;;10.61;85.86;96834.53;4970422;28;20063;-77
2024/03/19 01:15:47;;;;;;;11.80;9.88;;;;;;;10.64;85.92;96829.75;4971778;28;20063;-76
2024/03/19 01:18:14;;;;;;;12.82;10.60;;;;;;;10.65;85.95;96827.97;4972032;28;20535;-76
2024/03/19 01:20:42;;;;;;;12.73;10.55;;;;;;;10.65;85.04;96831.41;4971997;28;20050;-76
2024/03/19 01:23:09;;;;;;;17.00;11.48;;;;;;;10.65;85.48;96826.19;4971828;28;20058;-76
2024/03/19 01:25:36;;;;;;;15.90;10.95;;;;;;;10.62;83.84;96825.72;4971739;28;20070;-77
2024/03/19 01:28:02;;;;;;;14.48;10.52;;;;;;;10.56;83.90;96826.41;4971964;28;20392;-76
2024/03/19 01:30:29;;;;;;;14.10;10.55;;;;;;;10.52;82.91;96820.75;4971834;28;20424;-76
2024/03/19 01:32:55;;;;;;;11.95;10.10;;;;;;;10.48;82.59;96816.88;4970638;28;20061;-76
2024/03/19 01:35:22;;;;;;;14.32;11.82;;;;;;;10.42;82.41;96818.38;4973554;28;20055;-76
2024/03/19 01:37:50;;;;;;;17.10;12.43;;;;;;;10.40;81.76;96827.34;4974602;28;20070;-76
2024/03/19 01:40:17;;;;;;;14.32;11.15;;;;;;;10.38;82.71;96829.31;4974058;28;20057;-76
2024/03/19 01:42:44;;;;;;;12.40;10.07;;;;;;;10.41;83.98;96818.56;4974408;28;20051;-76
2024/03/19 01:45:12;;;;;;;11.35;9.95;;;;;;;10.47;85.00;96825.66;4974694;28;20058;-76
2024/03/19 01:47:39;;;;;;;14.98;11.73;;;;;;;10.52;85.35;96820.75;4975039;28;20051;-76
2024/03/19 01:50:08;;;;;;;16.13;11.55;;;;;;;10.56;85.78;96824.63;4975161;28;20051;-76
2024/03/19 01:52:38;;;;;;;14.48;11.20;;;;;;;10.60;85.74;96828.47;4975210;28;20055;-76
2024/03/19 01:55:07;;;;;;;15.60;11.45;;;;;;;10.63;86.16;96824.75;4975378;28;20054;-77
2024/03/19 01:57:34;;;;;;;13.43;9.77;;;;;;;10.65;85.92;96825.38;4974956;28;20055;-76
2024/03/19 02:00:02;;;;;;;13.13;10.98;;;;;;;10.67;85.85;96824.22;4974983;28;20051;-76
2024/03/19 02:02:31;;;;;;;13.73;10.18;;;;;;;10.66;84.77;96822.56;4975090;28;20470;-77
2024/03/19 02:04:59;;;;;;;14.18;10.88;;;;;;;10.56;84.22;96821.19;4975095;28;20046;-76
2024/03/19 02:07:25;;;;;;;17.10;11.30;;;;;;;10.48;83.17;96815.06;4974512;28;20515;-76
2024/03/19 02:09:52;;;;;;;18.30;10.65;;;;;;;10.42;82.10;96817.56;4974751;28;20061;-76
2024/03/19 02:12:20;;;;;;;16.98;11.68;;;;;;;10.35;82.56;96825.28;4974923;28;20131;-76
2024/03/19 02:14:47;;;;;;;16.52;12.43;;;;;;;10.31;82.99;96813.56;4974809;28;20058;-76
2024/03/19 02:17:13;;;;;;;15.48;11.52;;;;;;;10.32;84.44;96820.41;4974720;28;20051;-76
2024/03/19 02:19:40;;;;;;;15.73;12.30;;;;;;;10.29;83.21;96816.34;4974851;28;20062;-77
2024/03/19 02:22:09;;;;;;;15.27;13.20;;;;;;;10.22;81.71;96815.41;4974525;28;20459;-76
2024/03/19 02:24:38;;;;;;;18.27;13.85;;;;;;;10.16;81.35;96818.69;4973481;28;20062;-76
2024/03/19 02:27:05;;;;;;;17.20;12.98;;;;;;;10.11;81.32;96814.00;4972910;28;20059;-76
2024/03/19 02:29:32;;;;;;;17.63;13.35;;;;;;;10.10;81.45;96811.56;4973377;28;20067;-76
2024/03/19 02:31:59;;;;;;;15.70;13.23;;;;;;;10.08;81.29;96816.97;4974692;28;20061;-76
2024/03/19 02:34:25;;;;;;;16.23;12.52;;;;;;;10.06;82.85;96816.31;4973911;28;20051;-76
2024/03/19 02:36:52;;;;;;;16.60;12.70;;;;;;;10.11;83.46;96814.00;4974059;28;20430;-76
2024/03/19 02:39:18;;;;;;;17.27;13.07;;;;;;;10.17;84.69;96817.72;4974168;28;20055;-76
2024/03/19 02:41:46;;;;;;;17.83;13.02;;;;;;;10.24;85.74;96813.44;4974370;28;20135;-76
2024/03/19 02:44:13;;;;;;;17.88;13.82;;;;;;;10.21;83.55;96807.75;4973950;28;20055;-76
2024/03/19 02:46:39;;;;;;;16.92;13.65;;;;;;;10.18;82.73;96808.09;4973656;28;20077;-76
2024/03/19 02:49:06;;;;;;;16.10;12.93;;;;;;;10.20;84.02;96806.13;4974026;28;20055;-76
2024/03/19 02:51:33;;;;;;;15.45;12.50;;;;;;;10.23;84.52;96806.59;4974225;28;20074;-76
2024/03/19 02:54:00;;;;;;;15.95;12.30;;;;;;;10.25;84.93;96804.59;4973961;28;20439;-76
2024/03/19 02:56:26;;;;;;;15.20;12.88;;;;;;;10.30;85.65;96810.16;4972738;28;20059;-76
2024/03/19 02:58:55;;;;;;;17.70;13.93;;;;;;;10.31;83.77;96803.94;4973376;28;20415;-76
2024/03/19 03:01:22;;;;;;;17.95;13.55;;;;;;;10.28;83.75;96804.28;4973699;28;20057;-76
2024/03/19 03:03:49;;;;;;;20.50;13.00;;;;;;;10.23;82.92;96806.59;4974051;28;20051;-77
2024/03/19 03:06:15;;;;;;;15.05;13.05;;;;;;;10.21;83.78;96807.75;4972365;28;20055;-77
2024/03/19 03:08:42;;;;;;;16.33;12.85;;;;;;;10.25;85.18;96809.00;4976914;28;20062;-76
2024/03/19 03:11:09;;;;;;;15.57;12.77;;;;;;;10.33;85.68;96816.81;4978007;28;20050;-76
2024/03/19 03:13:35;;;;;;;16.30;12.48;;;;;;;10.36;84.88;96810.44;4985541;28;20058;-76
2024/03/19 03:16:04;;;;;;;15.82;11.60;;;;;;;10.31;82.93;96803.94;4994907;28;20073;-77
2024/03/19 03:18:30;;;;;;;13.80;10.52;;;;;;;10.28;83.84;96813.91;4989765;28;20507;-77
2024/03/19 03:20:57;;;;;;;16.25;11.45;;;;;;;10.26;83.08;96811.47;4976017;28;20050;-77
2024/03/19 03:23:23;;;;;;;17.98;12.98;;;;;;;10.21;82.34;96813.78;4973936;28;20055;-76
2024/03/19 03:25:50;;;;;;;17.55;13.65;;;;;;;10.15;82.06;96814.47;4973409;28;20055;-76
2024/03/19 03:28:17;;;;;;;20.10;12.02;;;;;;;10.16;83.69;96816.09;4973500;28;20058;-76
2024/03/19 03:30:43;;;;;;;15.65;11.65;;;;;;;10.22;84.74;96823.22;4973532;28;20046;-76
2024/03/19 03:33:12;;;;;;;15.90;11.68;;;;;;;10.25;84.42;96815.03;4973585;28;20058;-76
2024/03/19 03:35:39;;;;;;;15.27;10.70;;;;;;;10.26;83.67;96821.88;4973113;28;20062;-76
2024/03/19 03:38:04;;;;;;;14.07;10.70;;;;;;;10.25;82.75;96824.66;4973394;28;20070;-76
2024/03/19 03:40:31;;;;;;;17.42;11.82;;;;;;;10.21;82.11;96832.03;4973485;28;20310;-77
2024/03/19 03:43:00;;;;;;;16.85;10.60;;;;;;;10.21;83.84;96828.59;4973093;28;20061;-77
2024/03/19 03:45:26;;;;;;;18.98;12.40;;;;;;;10.22;83.13;96835.44;4976914;28;20061;-77
2024/03/19 03:47:53;;;;;;;13.63;10.52;;;;;;;10.23;83.87;96830.06;4975102;28;20443;-77
2024/03/19 03:50:21;;;;;;;16.02;11.55;;;;;;;10.26;83.07;96834.13;4974629;28;20054;-77
2024/03/19 03:52:47;;;;;;;18.75;13.13;;;;;;;10.26;82.24;96828.91;4973296;28;20176;-77
2024/03/19 03:55:14;;;;;;;15.10;10.98;;;;;;;10.26;83.57;96827.09;4973135;28;20062;-76
2024/03/19 03:57:41;;;;;;;19.00;12.93;;;;;;;10.29;83.32;96831.97;4978657;28;20062;-76
2024/03/19 04:00:11;;;;;;;17.45;13.30;;;;;;;10.25;82.00;96830.69;4992866;28;20058;-77
2024/03/19 04:02:38;;;;;;;17.75;12.77;;;;;;;10.19;81.56;96831.41;4992679;28;20053;-76
2024/03/19 04:05:07;;;;;;;20.15;12.88;;;;;;;10.13;81.79;96839.91;4989999;28;20059;-77
2024/03/19 04:07:36;;;;;;;17.35;13.35;;;;;;;10.06;81.41;96829.34;4973334;28;20061;-77
2024/03/19 04:10:03;;;;;;;21.65;13.52;;;;;;;10.03;81.46;96836.69;4972747;28;20051;-76
2024/03/19 04:12:32;;;;;;;23.48;12.80;;;;;;;9.98;81.19;96831.19;4973021;28;20442;-76
2024/03/19 04:14:58;;;;;;;20.38;13.70;;;;;;;9.94;81.18;96832.53;4972777;28;20482;-76
2024/03/19 04:17:25;;;;;;;20.52;13.60;;;;;;;9.90;81.59;96835.47;4972208;28;20062;-76
2024/03/19 04:19:52;;;;;;;20.23;13.52;;;;;;;9.90;82.34;96827.66;4972620;28;20062;-76
2024/03/19 04:22:19;;;;;;;19.08;13.38;;;;;;;9.94;82.38;96835.13;4972774;28;20058;-76
2024/03/19 04:24:47;;;;;;;23.02;15.00;;;;;;;9.92;81.65;96832.69;4972784;28;20062;-76
2024/03/19 04:27:14;;;;;;;21.45;14.35;;;;;;;9.89;81.94;96833.84;4972365;28;20151;-76
2024/03/19 04:29:41;;;;;;;21.50;14.10;;;;;;;9.87;81.75;96833.19;4972490;28;20054;-76
2024/03/19 04:32:08;;;;;;;24.25;14.60;;;;;;;9.87;81.47;96830.59;4972748;28;20053;-76
2024/03/19 04:34:34;;;;;;;28.92;17.25;;;;;;;9.83;81.32;96831.13;4972488;28;20474;-76
2024/03/19 04:37:01;;;;;;;26.88;16.17;;;;;;;9.79;81.35;96835.03;4972418;28;20061;-76
2024/03/19 04:39:28;;;;;;;23.05;15.70;;;;;;;9.75;81.60;96839.81;4972598;28;20182;-76
2024/03/19 04:41:56;;;;;;;28.50;17.42;;;;;;;9.69;81.89;96833.47;4972118;28;20051;-76
2024/03/19 04:44:22;;;;;;;27.98;16.95;;;;;;;9.65;82.26;96840.00;4972189;28;20058;-76
2024/03/19 04:46:49;;;;;;;26.92;16.98;;;;;;;9.64;82.60;96840.16;4972041;28;20091;-77
2024/03/19 04:49:16;;;;;;;24.77;17.08;;;;;;;9.65;82.71;96840.00;4972263;28;20131;-76
2024/03/19 04:51:42;;;;;;;26.58;16.00;;;;;;;9.66;82.74;96839.03;4971885;28;20050;-76
2024/03/19 04:54:09;;;;;;;25.55;16.60;;;;;;;9.65;82.62;96840.00;4972129;28;20111;-76
2024/03/19 04:56:35;;;;;;;23.85;15.50;;;;;;;9.64;82.60;96842.75;4972040;28;20055;-77
2024/03/19 04:59:03;;;;;;;26.13;15.93;;;;;;;9.64;82.72;96853.19;4972120;28;20085;-76
2024/03/19 05:01:30;;;;;;;23.40;15.98;;;;;;;9.62;82.80;96847.31;4972113;28;20047;-76
2024/03/19 05:03:57;;;;;;;23.65;15.65;;;;;;;9.61;82.80;96838.69;4972449;28;20051;-77
2024/03/19 05:06:23;;;;;;;25.30;16.40;;;;;;;9.60;83.33;96846.69;4972169;28;20065;-76
2024/03/19 05:08:50;;;;;;;23.38;16.38;;;;;;;9.63;84.10;96835.94;4975151;28;20051;-76
2024/03/19 05:11:17;;;;;;;23.90;15.70;;;;;;;9.68;85.01;96841.44;4976528;28;20050;-76
2024/03/19 05:13:43;;;;;;;24.90;15.75;;;;;;;9.70;84.36;96836.88;4975906;28;20070;-76
2024/03/19 05:16:11;;;;;;;24.60;15.60;;;;;;;9.71;83.50;96833.31;4975577;28;20088;-76
2024/03/19 05:18:38;;;;;;;25.98;16.63;;;;;;;9.71;83.73;96835.91;4976059;28;20055;-77
2024/03/19 05:21:05;;;;;;;24.52;14.90;;;;;;;9.73;83.56;96831.34;4975802;28;20059;-77
2024/03/19 05:23:31;;;;;;;19.73;14.00;;;;;;;9.76;83.80;96830.19;4976045;28;20065;-76
2024/03/19 05:25:58;;;;;;;21.83;14.85;;;;;;;9.79;84.31;96829.81;4975574;28;20446;-76
2024/03/19 05:28:25;;;;;;;19.75;14.45;;;;;;;9.80;84.58;96832.28;4977564;28;20070;-78
2024/03/19 05:30:51;;;;;;;23.50;16.27;;;;;;;9.83;83.90;96826.72;4976539;28;20058;-80
2024/03/19 05:33:20;;;;;;;24.52;17.15;;;;;;;9.76;82.58;96828.38;4976192;28;20058;-79
2024/03/19 05:35:45;;;;;;;24.92;17.15;;;;;;;9.66;82.50;96830.38;4960083;28;20059;-79
2024/03/19 05:38:13;;;;;;;24.42;17.38;;;;;;;9.59;82.57;96830.25;4973521;28;20089;-80
2024/03/19 05:40:39;;;;;;;26.50;16.92;;;;;;;9.54;82.65;96829.16;4975780;28;20085;-79
2024/03/19 05:43:06;;;;;;;25.13;17.33;;;;;;;9.48;83.09;96836.63;4975148;28;20055;-78
2024/03/19 05:45:33;;;;;;;26.65;17.40;;;;;;;9.47;83.18;96842.84;4962738;28;20051;-79
2024/03/19 05:48:02;;;;;;;27.98;17.35;;;;;;;9.45;83.14;96844.78;4975865;28;20447;-80
2024/03/19 05:50:30;;;;;;;19.58;14.57;;;;;;;9.43;82.87;96845.94;4976302;28;20062;-80
2024/03/19 05:53:02;;;;;;;21.52;15.82;;;;;;;9.37;83.19;96842.22;4979386;28;20054;-81
2024/03/19 05:55:30;;;;;;;22.25;14.48;;;;;;;9.32;82.81;96841.09;4977544;28;20065;-81
2024/03/19 06:08:30;;;;;;;18.23;12.88;;;;;;;9.13;84.57;96857.91;4996130;28;20181;-80
2024/03/19 06:10:57;;;;;;;22.70;14.80;;;;;;;9.15;84.77;96858.56;4996575;28;20054;-80
2024/03/19 06:13:27;;;;;;;23.05;15.43;;;;;;;9.14;84.47;96862.97;4996481;28;20062;-80
2024/03/19 06:16:17;;;;;;;23.33;14.88;;;;;;;9.10;84.33;96860.84;4977630;28;20090;-81
2024/03/19 06:22:27;;;;;;;22.98;13.90;;;;;;;8.99;84.69;96860.22;4952343;28;20408;-81
2024/03/19 06:31:41;;;;;;;17.15;12.32;;;;;;;8.87;86.20;96871.91;4972378;28;20570;-81
2024/03/19 06:37:54;;;;;;;21.98;13.15;;;;;;;8.82;85.96;96880.22;4975824;28;20507;-81
2024/03/19 06:40:49;;;;;;;19.83;12.63;;;;;;;8.81;85.97;96872.56;4970671;28;20522;-81
2024/03/19 06:43:24;;;;;;;20.20;13.02;;;;;;;8.75;86.18;96862.84;4975541;28;20530;-81
2024/03/19 06:46:00;;;;;;;23.05;13.57;;;;;;;8.75;86.34;96868.03;4948462;28;20533;-81
2024/03/19 06:48:31;;;;;;;24.48;15.32;;;;;;;8.76;86.72;96874.88;4972009;28;20105;-80
2024/03/19 06:54:08;;;;;;;21.88;14.75;;;;;;;8.79;88.21;96874.53;4975316;28;20051;-81
2024/03/19 06:57:34;;;;;;;22.73;15.55;;;;;;;8.86;88.16;96880.72;4957051;28;20051;-81
2024/03/19 07:06:58;;;;;;;25.95;15.20;;;;;;;8.92;87.76;96877.47;4973623;28;20426;-81
2024/03/19 07:13:27;;;;;;;21.67;13.13;;;;;;;9.11;87.94;96872.88;4976716;28;20515;-81
2024/03/19 07:19:56;;;;;;;22.17;13.30;;;;;;;9.25;86.93;96875.63;4995055;28;20062;-81
2024/03/19 07:22:56;;;;;;;21.15;14.30;;;;;;;9.30;86.29;96887.31;4975980;28;20109;-81
2024/03/19 07:25:46;;;;;;;22.27;14.20;;;;;;;9.32;86.01;96886.16;4972472;28;20051;-81
2024/03/19 07:40:52;;;;;;;19.87;13.07;;;;;;;9.41;85.65;96895.59;5966881;23;20143;-81
2024/03/19 07:43:19;;;;;;;17.15;11.98;;;;;;;9.42;85.45;96894.63;4994767;28;20061;-81
2024/03/19 07:45:47;;;;;;;19.08;12.23;;;;;;;9.45;85.65;96896.88;4987493;28;20051;-81
2024/03/19 07:48:15;;;;;;;19.15;12.82;;;;;;;9.53;85.60;96901.22;4975296;28;20051;-81
2024/03/19 07:50:42;;;;;;;19.90;12.15;;;;;;;9.64;85.29;96902.66;4974827;28;20069;-81
2024/03/19 07:53:09;;;;;;;16.73;11.07;;;;;;;9.76;84.92;96903.13;4974551;28;20526;-79
2024/03/19 07:55:37;;;;;;;15.98;10.82;;;;;;;9.91;84.62;96911.84;4973513;28;20046;-79
2024/03/19 07:58:05;;;;;;;17.20;11.38;;;;;;;10.14;83.68;96916.31;4973118;28;20054;-80
2024/03/19 08:00:32;;;;;;;18.63;11.95;;;;;;;10.40;82.45;96910.81;4973443;28;20059;-79
2024/03/19 08:02:59;;;;;;;18.60;11.02;;;;;;;10.64;81.30;96915.84;4973546;28;20110;-79
2024/03/19 08:05:26;;;;;;;18.30;13.00;;;;;;;10.74;80.84;96922.66;4973560;28;20054;-79
2024/03/19 08:07:52;;;;;;;18.38;11.73;;;;;;;10.75;80.48;96925.06;4972933;28;20411;-80
2024/03/19 08:10:19;;;;;;;15.60;11.38;;;;;;;10.78;80.66;96929.13;4973229;28;20051;-79
2024/03/19 08:12:46;;;;;;;17.00;11.63;;;;;;;10.86;80.18;96923.84;4972791;28;20062;-79
2024/03/19 08:15:14;;;;;;;17.85;11.43;;;;;;;10.93;79.27;96935.19;4973495;28;20074;-80
2024/03/19 08:17:41;;;;;;;18.08;12.63;;;;;;;10.97;79.22;96931.25;4978301;28;20066;-80
2024/03/19 08:20:12;;;;;;;17.73;10.65;;;;;;;11.02;79.53;96935.94;4991790;28;20063;-80
2024/03/19 08:22:39;;;;;;;18.75;12.40;;;;;;;11.05;79.27;96941.63;4990827;28;20050;-80
2024/03/19 08:25:06;;;;;;;15.10;11.73;;;;;;;11.07;78.67;96944.09;4990035;28;20043;-80
2024/03/19 08:27:33;;;;;;;16.00;11.45;;;;;;;11.19;78.81;96947.06;4979077;28;20066;-79
2024/03/19 08:30:01;;;;;;;16.15;12.45;;;;;;;11.23;78.16;96954.38;4978179;28;20415;-80
2024/03/19 08:32:29;;;;;;;16.73;12.52;;;;;;;11.29;77.67;96952.88;4974484;28;20073;-80
2024/03/19 08:34:56;;;;;;;15.95;11.05;;;;;;;11.62;76.82;96955.16;4974304;28;20427;-80
2024/03/19 08:37:23;;;;;;;15.38;11.57;;;;;;;11.88;74.85;96957.34;4974459;28;20062;-80
2024/03/19 08:39:49;;;;;;;16.38;12.40;;;;;;;12.06;74.35;96960.41;4974315;28;20054;-79
2024/03/19 08:42:16;;;;;;;16.02;11.27;;;;;;;12.11;74.09;96962.47;4973868;28;20050;-80
2024/03/19 08:44:43;;;;;;;14.75;11.35;;;;;;;12.04;74.37;96951.91;4974691;28;20050;-80
2024/03/19 08:47:09;;;;;;;17.17;12.63;;;;;;;11.94;74.25;96965.28;4974870;28;20114;-79
2024/03/19 08:49:37;;;;;;;16.25;12.18;;;;;;;11.88;74.32;96967.81;4995503;28;20057;-80
2024/03/19 08:52:05;;;;;;;18.45;11.88;;;;;;;11.83;75.10;96965.72;4994191;28;20069;-80
2024/03/19 08:54:31;;;;;;;18.20;12.35;;;;;;;11.80;74.68;96963.44;4993569;28;20054;-80
2024/03/19 08:56:58;;;;;;;14.57;11.55;;;;;;;11.80;74.58;96965.25;4978570;28;20077;-80
2024/03/19 08:59:25;;;;;;;17.63;12.73;;;;;;;11.83;74.66;96963.09;4975753;28;20051;-81
2024/03/19 09:01:51;;;;;;;15.88;11.85;;;;;;;11.93;75.07;96966.25;4975975;28;20067;-80
2024/03/19 09:04:18;;;;;;;15.13;11.55;;;;;;;12.05;74.12;96957.97;4975614;28;20051;-80
2024/03/19 09:06:46;;;;;;;13.80;11.00;;;;;;;12.11;73.44;96963.28;4974729;28;20055;-80
2024/03/19 09:09:13;;;;;;;15.50;11.10;;;;;;;12.19;73.21;96967.59;4974216;28;20059;-80
2024/03/19 09:11:40;;;;;;;15.38;11.38;;;;;;;12.25;72.75;96953.78;4972853;28;20530;-80
2024/03/19 09:14:06;;;;;;;15.80;11.02;;;;;;;12.33;73.37;96965.94;4972535;28;20058;-80
2024/03/19 09:16:33;;;;;;;17.60;12.05;;;;;;;12.41;72.71;96968.47;4972290;28;20062;-80
2024/03/19 09:19:00;;;;;;;17.35;12.15;;;;;;;12.49;74.86;96970.97;4973014;28;20047;-80
2024/03/19 09:21:26;;;;;;;15.85;11.93;;;;;;;12.60;73.55;96974.09;4972712;28;20434;-80
2024/03/19 09:23:54;;;;;;;15.18;11.65;;;;;;;12.74;73.35;96979.28;4972429;28;20127;-80
2024/03/19 09:26:21;;;;;;;17.65;11.40;;;;;;;12.91;72.33;96984.28;4971959;28;20058;-80
2024/03/19 09:28:48;;;;;;;13.45;10.82;;;;;;;13.06;71.69;96977.16;4972217;28;20055;-80
2024/03/19 09:31:14;;;;;;;16.58;11.73;;;;;;;13.29;71.36;96982.22;4971974;28;20055;-80
2024/03/19 09:33:41;;;;;;;15.13;11.60;;;;;;;13.56;70.60;96983.25;4971933;28;20055;-80
2024/03/19 09:36:08;;;;;;;14.43;10.15;;;;;;;13.83;69.41;96970.31;4972014;28;20062;-80
2024/03/19 09:38:34;;;;;;;14.50;10.60;;;;;;;14.09;68.21;96982.75;4971758;28;20061;-80
2024/03/19 09:41:04;;;;;;;14.68;10.63;;;;;;;14.35;67.77;96981.25;4972149;28;20418;-80
2024/03/19 09:43:35;;;;;;;14.10;10.65;;;;;;;14.55;65.81;96981.34;4972104;28;20050;-81
2024/03/19 09:46:03;;;;;;;16.23;11.40;;;;;;;14.69;65.47;96974.31;4971667;28;20062;-80
2024/03/19 09:48:31;;;;;;;13.07;9.90;;;;;;;14.79;64.73;96978.19;4972297;28;20109;-80
2024/03/19 09:50:58;;;;;;;16.17;10.38;;;;;;;14.94;64.62;96970.13;4972086;28;20058;-80
2024/03/19 09:53:26;;;;;;;14.75;9.93;;;;;;;15.14;64.17;96974.59;4971559;28;20510;-80
2024/03/19 09:55:54;;;;;;;15.00;10.70;;;;;;;15.34;63.33;96969.34;4974772;28;20073;-80
2024/03/19 09:58:23;;;;;;;12.95;10.10;;;;;;;15.57;62.32;96974.19;4976226;28;20058;-80
2024/03/19 10:00:52;;;;;;;17.45;8.73;;;;;;;15.87;61.90;96969.28;4975678;28;20059;-80
2024/03/19 10:03:19;;;;;;;13.35;9.75;;;;;;;16.16;61.11;96964.56;4975566;28;20055;-78
2024/03/19 10:05:46;;;;;;;12.15;9.82;;;;;;;16.35;61.08;96968.94;4975596;28;20430;-78
2024/03/19 10:08:15;;;;;;;15.68;9.45;;;;;;;16.42;59.40;96972.38;4975498;28;20070;-78
2024/03/19 10:10:42;;;;;;;11.75;8.68;;;;;;;16.46;59.02;96970.94;4975945;28;20422;-81
2024/03/19 10:13:11;;;;;;;9.93;8.88;;;;;;;16.51;58.33;96970.31;4976626;28;20055;-81
2024/03/19 10:15:40;;;;;;;13.00;9.23;;;;;;;16.67;58.28;96969.00;4976173;28;20427;-77
2024/03/19 10:18:07;;;;;;;9.93;8.05;;;;;;;16.88;59.73;96971.34;4976587;28;20062;-78
2024/03/19 10:20:36;;;;;;;9.85;7.70;;;;;;;17.14;58.95;96964.25;4976084;28;20061;-78
2024/03/19 10:23:06;;;;;;;9.00;7.25;;;;;;;17.28;58.11;96965.78;4975939;28;20055;-78
2024/03/19 10:25:33;;;;;;;8.95;7.30;;;;;;;17.36;56.66;96953.34;4975740;28;20054;-78
2024/03/19 10:27:59;;;;;;;9.10;7.07;;;;;;;17.43;56.55;96956.75;4975736;28;20422;-78
2024/03/19 10:30:26;;;;;;;9.60;7.80;;;;;;;17.52;55.59;96963.34;4975696;28;20062;-78
2024/03/19 10:32:54;;;;;;;8.65;6.63;;;;;;;17.55;55.06;96962.91;4975430;28;20090;-78
2024/03/19 10:35:22;;;;;;;10.93;8.32;;;;;;;17.65;54.59;96963.22;4975809;28;20503;-77
2024/03/19 10:37:50;;;;;;;12.90;7.85;;;;;;;17.58;54.37;96954.56;4976115;28;20082;-78
2024/03/19 10:40:18;;;;;;;10.48;7.50;;;;;;;17.54;55.93;96953.38;4974980;28;20061;-78
2024/03/19 10:42:47;;;;;;;8.80;7.38;;;;;;;17.62;54.69;96945.22;4980084;28;20355;-78
2024/03/19 10:45:18;;;;;;;10.38;7.53;;;;;;;17.63;53.67;96951.28;4987950;28;20072;-78
2024/03/19 10:47:45;;;;;;;7.85;6.43;;;;;;;17.55;54.62;96952.34;4985683;28;20329;-79
2024/03/19 10:50:15;;;;;;;8.65;6.53;;;;;;;17.58;54.27;96954.56;4976239;28;20059;-79
2024/03/19 10:52:50;;;;;;;7.55;5.95;;;;;;;17.66;55.43;96951.63;4976293;28;20065;-78
2024/03/19 10:55:19;;;;;;;7.07;5.60;;;;;;;17.80;56.07;96957.59;4976936;28;20089;-78
2024/03/19 10:57:47;;;;;;;8.40;5.53;;;;;;;17.95;54.36;96954.66;4976887;28;20427;-79
2024/03/19 11:00:18;;;;;;;7.15;6.00;;;;;;;17.99;53.00;96947.88;4975136;28;20059;-78
2024/03/19 11:02:47;;;;;;;7.05;5.35;;;;;;;17.88;52.59;96959.16;4975832;28;20423;-79
2024/03/19 11:05:19;;;;;;;7.32;5.90;;;;;;;17.80;52.57;96951.50;4974737;28;20047;-78
2024/03/19 11:07:48;;;;;;;7.40;5.40;;;;;;;17.75;53.70;96946.09;4974383;28;20062;-78
2024/03/19 11:10:22;;;;;;;6.97;4.78;;;;;;;17.81;54.16;96953.13;4974223;28;20426;-78
2024/03/19 11:12:55;;;;;;;6.22;4.80;;;;;;;17.91;56.47;96956.09;4973993;28;20054;-80
2024/03/19 11:15:23;;;;;;;6.50;4.90;;;;;;;17.99;54.93;96941.78;4973970;28;20058;-79
2024/03/19 11:17:50;;;;;;;8.80;4.70;;;;;;;18.10;53.35;96938.41;4973865;28;20105;-78
2024/03/19 11:20:18;;;;;;;5.50;4.32;;;;;;;18.08;52.20;96932.53;4974108;28;20065;-78
2024/03/19 11:22:47;;;;;;;4.70;3.92;;;;;;;18.04;52.60;96932.19;4973879;28;20125;-78
2024/03/19 11:25:16;;;;;;;6.03;4.68;;;;;;;18.11;52.13;96926.84;4973746;28;20055;-78
2024/03/19 11:27:49;;;;;;;6.30;3.67;;;;;;;18.16;53.07;96926.16;4973899;28;20059;-78
2024/03/19 11:30:17;;;;;;;5.47;4.22;;;;;;;18.23;52.31;96930.31;4974002;28;20522;-78
2024/03/19 11:32:45;;;;;;;5.32;4.00;;;;;;;18.33;51.52;96929.81;4973776;28;20494;-80
2024/03/19 11:35:21;;;;;;;4.80;3.28;;;;;;;18.44;50.65;96934.34;4973568;28;20507;-78
2024/03/19 11:37:49;;;;;;;5.82;3.78;;;;;;;18.59;50.14;96930.50;4973446;28;20538;-78
2024/03/19 11:40:16;;;;;;;5.30;3.60;;;;;;;18.80;50.92;96929.19;4973824;28;20059;-78
2024/03/19 11:42:43;;;;;;;3.90;2.83;;;;;;;19.12;52.39;96935.03;4973645;28;20063;-79
2024/03/19 11:45:14;;;;;;;5.28;3.30;;;;;;;19.48;49.16;96938.50;4973082;28;20051;-79
2024/03/19 11:47:41;;;;;;;5.28;2.72;;;;;;;19.70;48.39;96931.63;4973627;28;20054;-78
2024/03/19 11:50:15;;;;;;;5.72;3.58;;;;;;;19.82;47.03;96928.16;4973433;28;20062;-79
2024/03/19 11:52:43;;;;;;;3.47;2.67;;;;;;;19.89;46.06;96921.69;4973716;28;20059;-78
2024/03/19 11:55:10;;;;;;;3.20;1.95;;;;;;;19.92;44.89;96923.88;4973285;28;20050;-79
2024/03/19 11:57:37;;;;;;;2.00;1.85;;;;;;;19.89;44.25;96921.69;4973409;28;20051;-79
2024/03/19 12:00:10;;;;;;;2.25;1.88;;;;;;;19.90;44.59;96920.66;4973829;28;20054;-80
2024/03/19 12:02:37;;;;;;;6.15;2.60;;;;;;;19.86;44.09;96918.72;4973647;28;20050;-79
2024/03/19 12:05:04;;;;;;;3.20;2.20;;;;;;;19.83;48.15;96917.34;4973245;28;20055;-78
2024/03/19 12:07:31;;;;;;;3.03;1.65;;;;;;;19.85;48.73;96917.91;4973318;28;20515;-78
2024/03/19 12:09:59;;;;;;;3.10;2.40;;;;;;;19.94;47.16;96918.34;4973918;28;20422;-79
2024/03/19 12:12:27;;;;;;;2.20;1.88;;;;;;;20.05;45.36;96914.06;4973666;28;20530;-79
2024/03/19 12:14:55;;;;;;;2.28;1.90;;;;;;;20.10;44.20;96909.69;4973943;28;20532;-79
2024/03/19 12:17:22;;;;;;;3.13;1.88;;;;;;;20.02;42.55;96903.94;4973581;28;20511;-79
2024/03/19 12:19:50;;;;;;;1.50;1.08;;;;;;;19.89;43.22;96905.81;4973338;28;20058;-79
2024/03/19 12:22:17;;;;;;;2.78;1.65;;;;;;;19.82;44.23;96901.69;4973022;28;20051;-78